Time;durP1;ratioP1;P1;durP2;ratioP2;P2;SDS_P1;SDS_P2;PMS_P1;PMS_P2;Temp;Humidity;BMP_temperature;BMP_pressure;BME280_temperature;BME280_humidity;BME280_pressure;Samples;Min_cycle;Max_cycle;Signal;HPM_P1;HPM_P2
2024/03/16 00:00:07;;;;;;;31.02;20.63;;;;;;;-145.63;53.13;39319.56;5028371;28;20447;-66
2024/03/16 00:02:45;;;;;;;30.98;22.17;;;;;;;-145.63;53.67;39321.50;5029031;28;20029;-65
2024/03/16 00:05:29;;;;;;;32.25;21.55;;;;;;;-145.63;53.26;39303.91;5020524;28;20237;-65
2024/03/16 00:08:19;;;;;;;33.00;22.73;;;;;;;-145.63;53.34;39294.13;5013900;28;20116;-65
2024/03/16 00:11:06;;;;;;;30.52;21.38;;;;;;;-145.63;53.09;39317.59;5024874;28;20502;-65
2024/03/16 00:14:05;;;;;;;32.63;22.08;;;;;;;-145.63;53.05;39339.13;5019987;28;20022;-65
2024/03/16 00:16:34;;;;;;;31.73;22.00;;;;;;;-145.63;52.71;39301.94;5025195;28;20042;-67
2024/03/16 00:19:11;;;;;;;33.50;23.13;;;;;;;-145.63;52.65;39329.34;5030351;28;20033;-65
2024/03/16 00:21:46;;;;;;;31.30;22.08;;;;;;;-145.63;52.94;39339.13;5047981;28;20068;-65
2024/03/16 00:24:14;;;;;;;33.13;21.60;;;;;;;-145.63;53.19;39202.22;4992545;28;20042;-65
2024/03/16 00:26:58;;;;;;;28.33;20.95;;;;;;;-145.63;53.59;39300.00;5023552;28;20067;-65
2024/03/16 00:29:55;;;;;;;29.45;21.35;;;;;;;-145.63;53.31;39309.78;5018180;28;20030;-65
2024/03/16 00:32:21;;;;;;;30.25;20.73;;;;;;;-145.63;52.94;39305.88;5012977;28;20036;-65
2024/03/16 00:34:55;;;;;;;29.70;20.67;;;;;;;-145.63;53.26;39313.69;5012601;28;20050;-64
2024/03/16 00:37:27;;;;;;;31.55;21.42;;;;;;;-145.63;53.75;39337.16;5018464;28;20358;-64
2024/03/16 00:39:58;;;;;;;31.60;21.63;;;;;;;-145.63;53.34;39317.59;5030345;28;20052;-66
2024/03/16 00:42:30;;;;;;;32.55;21.77;;;;;;;-145.63;52.90;39305.88;5012748;28;20120;-65
2024/03/16 00:45:22;;;;;;;31.65;21.92;;;;;;;-145.63;53.60;39296.09;5032119;28;20075;-65
2024/03/16 00:47:48;;;;;;;33.55;21.70;;;;;;;-145.63;53.34;39301.94;5015091;28;20475;-66
2024/03/16 00:50:35;;;;;;;30.00;21.60;;;;;;;-145.63;52.98;39317.59;5012677;28;20029;-66
2024/03/16 00:53:09;;;;;;;30.30;21.13;;;;;;;-145.63;52.86;39325.41;5013132;28;20077;-66
2024/03/16 00:55:46;;;;;;;64.10;43.45;;;;;;;-145.63;53.80;39329.34;5012700;28;20076;-65
2024/03/16 00:58:36;;;;;;;35.00;23.42;;;;;;;-145.63;53.71;39309.78;5016233;28;20091;-66
2024/03/16 01:01:07;;;;;;;38.67;22.20;;;;;;;-145.63;53.63;39321.50;5029177;28;20053;-66
2024/03/16 01:03:42;;;;;;;33.17;22.50;;;;;;;-145.63;54.43;39327.38;5012502;28;20088;-65
2024/03/16 01:06:11;;;;;;;30.98;21.70;;;;;;;-145.63;54.52;39317.59;4993422;28;20058;-66
2024/03/16 01:08:49;;;;;;;36.15;22.95;;;;;;;-145.63;54.74;39315.66;5008573;28;20025;-66
2024/03/16 01:11:18;;;;;;;33.17;22.38;;;;;;;-145.63;54.09;39311.72;5012517;28;20418;-65
2024/03/16 01:14:02;;;;;;;34.50;21.90;;;;;;;-145.63;53.94;39323.47;5024033;28;20600;-66
2024/03/16 01:17:07;;;;;;;32.65;21.67;;;;;;;-145.63;53.76;39301.94;5022632;28;20386;-65
2024/03/16 01:20:10;;;;;;;29.38;21.33;;;;;;;-145.63;53.47;39337.16;5013037;28;20088;-66
2024/03/16 01:22:44;;;;;;;36.35;22.90;;;;;;;-145.63;53.68;39278.47;5012415;28;20029;-66
2024/03/16 01:25:10;;;;;;;35.47;21.67;;;;;;;-145.63;53.67;39305.88;5008290;28;20040;-66
2024/03/16 01:27:39;;;;;;;33.20;21.65;;;;;;;-145.63;53.94;39313.69;5025575;28;20490;-67
2024/03/16 01:30:06;;;;;;;32.60;22.38;;;;;;;-145.63;54.43;39301.94;5032151;28;20026;-66
2024/03/16 01:33:11;;;;;;;32.92;22.85;;;;;;;-145.63;53.84;39305.88;5032706;28;20099;-66
2024/03/16 01:36:17;;;;;;;38.90;23.77;;;;;;;-145.63;54.19;39290.22;4992682;28;20053;-65
2024/03/16 01:38:55;;;;;;;33.92;23.38;;;;;;;-145.63;54.51;39288.25;4975904;28;20081;-65
2024/03/16 01:41:26;;;;;;;36.00;22.20;;;;;;;-145.63;54.09;39258.94;5015320;28;20021;-65
2024/03/16 01:44:17;;;;;;;33.17;22.10;;;;;;;-145.63;54.25;39241.31;5016732;28;20041;-65
2024/03/16 01:49:47;;;;;;;36.53;23.25;;;;;;;-145.63;54.19;39301.94;5030002;28;20087;-66
2024/03/16 01:52:21;;;;;;;32.58;23.23;;;;;;;-145.63;54.67;39296.09;5016200;28;20049;-66
2024/03/16 01:55:03;;;;;;;31.95;23.08;;;;;;;-145.63;55.11;39292.19;5029818;28;20117;-66
2024/03/16 01:57:39;;;;;;;37.05;24.25;;;;;;;-145.63;54.63;39319.56;5015799;28;20447;-65
2024/03/16 02:00:31;;;;;;;40.65;24.67;;;;;;;-145.63;54.84;39301.94;5032530;28;20029;-67
2024/03/16 02:03:37;;;;;;;38.15;24.70;;;;;;;-145.63;54.87;39270.66;5032077;28;20032;-66
2024/03/16 02:06:48;;;;;;;39.70;23.52;;;;;;;-145.63;54.95;39286.31;5016079;28;20072;-67
2024/03/16 02:09:29;;;;;;;37.80;23.17;;;;;;;-145.63;54.89;39307.81;5015367;28;20034;-66
2024/03/16 02:12:25;;;;;;;37.70;24.45;;;;;;;-145.63;54.78;39305.88;5016534;28;20041;-66
2024/03/16 02:21:34;;;;;;;36.58;23.73;;;;;;;-145.63;54.64;39307.81;5015464;28;20057;-66
2024/03/16 02:24:18;;;;;;;39.95;25.63;;;;;;;-145.63;54.61;39290.22;5014210;28;20352;-66
2024/03/16 02:26:56;;;;;;;35.88;23.52;;;;;;;-145.63;54.53;39305.88;5015172;28;20116;-65
2024/03/16 02:29:24;;;;;;;33.00;23.00;;;;;;;-145.63;54.73;39303.91;5013968;28;20042;-66
2024/03/16 02:32:23;;;;;;;38.17;23.33;;;;;;;-145.63;54.14;39305.88;5015399;28;20030;-66
2024/03/16 02:35:10;;;;;;;35.78;23.35;;;;;;;-145.63;54.23;39335.19;5015519;28;20129;-65
2024/03/16 02:37:54;;;;;;;38.67;23.77;;;;;;;-145.63;54.03;39270.66;5014798;28;20541;-66
2024/03/16 02:40:34;;;;;;;44.25;24.83;;;;;;;-145.63;54.40;39305.88;5026257;28;20033;-67
2024/03/16 02:43:19;;;;;;;37.28;22.67;;;;;;;-145.63;53.92;39296.09;5023657;28;20057;-67
2024/03/16 02:46:13;;;;;;;32.33;20.88;;;;;;;-145.63;54.05;39298.03;5046926;28;20465;-67
2024/03/16 02:48:45;;;;;;;32.83;23.45;;;;;;;-145.63;54.44;39305.88;5013857;28;20113;-66
2024/03/16 02:51:19;;;;;;;40.70;22.85;;;;;;;-145.63;53.96;39290.22;5014793;28;20091;-67
2024/03/16 02:54:25;;;;;;;36.30;22.13;;;;;;;-145.63;54.30;39292.19;5015233;28;20080;-66
2024/03/16 02:57:05;;;;;;;31.98;20.92;;;;;;;-145.63;53.87;39294.13;4995126;28;20113;-66
2024/03/16 02:59:46;;;;;;;31.20;20.23;;;;;;;-145.63;53.90;39321.50;5010262;28;20021;-66
2024/03/16 03:02:41;;;;;;;32.83;21.15;;;;;;;-145.63;54.02;39292.19;5034263;28;20129;-66
2024/03/16 03:08:18;;;;;;;36.45;21.17;;;;;;;-145.63;53.89;39270.66;5014700;28;20029;-66
2024/03/16 03:11:27;;;;;;;29.77;20.70;;;;;;;-145.63;53.49;39305.88;5030945;28;20095;-65
2024/03/16 03:14:08;;;;;;;35.80;22.20;;;;;;;-145.63;54.05;39258.94;5034136;28;20362;-66
2024/03/16 03:16:37;;;;;;;31.90;21.42;;;;;;;-145.63;53.92;39282.41;5020837;28;20045;-65
2024/03/16 03:19:03;;;;;;;35.15;21.33;;;;;;;-145.63;53.83;39290.22;5014462;28;20040;-65
2024/03/16 03:21:34;;;;;;;37.15;20.58;;;;;;;-145.63;53.96;39292.19;5012752;28;20030;-66
2024/03/16 03:24:37;;;;;;;32.83;20.70;;;;;;;-145.63;53.83;39278.47;5014195;28;20044;-66
2024/03/16 03:27:06;;;;;;;32.58;20.63;;;;;;;-145.63;54.00;39298.03;5014131;28;20105;-66
2024/03/16 03:29:41;;;;;;;31.27;20.10;;;;;;;-145.63;54.15;39301.94;5014203;28;20145;-66
2024/03/16 03:32:14;;;;;;;33.67;20.50;;;;;;;-145.63;53.84;39311.72;5014083;28;20034;-66
2024/03/16 03:34:48;;;;;;;33.63;21.25;;;;;;;-145.63;54.24;39292.19;5014415;28;20077;-66
2024/03/16 03:37:14;;;;;;;29.70;19.85;;;;;;;-145.63;54.11;39307.81;5013772;28;20102;-66
2024/03/16 03:40:07;;;;;;;35.08;20.17;;;;;;;-145.63;53.81;39319.56;5021196;28;20501;-66
2024/03/16 03:42:48;;;;;;;33.10;20.45;;;;;;;-145.63;54.21;39274.56;5027817;28;20518;-66
2024/03/16 03:45:48;;;;;;;31.35;21.33;;;;;;;-145.63;54.16;39282.41;5012667;28;20030;-66
2024/03/16 03:51:07;;;;;;;34.20;21.33;;;;;;;-145.63;53.83;39303.91;5043946;28;20483;-66
2024/03/16 03:53:32;;;;;;;31.15;20.02;;;;;;;-145.63;53.92;39290.22;4994051;28;20029;-65
2024/03/16 03:56:07;;;;;;;30.17;20.48;;;;;;;-145.63;54.00;39313.69;5012445;28;20034;-65
2024/03/16 03:58:32;;;;;;;;;;;;;;;-145.63;54.27;39300.00;5013938;28;20033;-65
2024/03/16 04:01:03;;;;;;;32.63;20.20;;;;;;;-145.63;54.25;39284.34;5013982;28;20560;-65
2024/03/16 04:03:38;;;;;;;36.63;24.67;;;;;;;-145.63;54.22;39288.25;5013431;28;20443;-66
2024/03/16 04:06:44;;;;;;;32.28;21.00;;;;;;;-145.63;54.29;39313.69;5013884;28;20538;-66
2024/03/16 04:09:32;;;;;;;31.67;19.63;;;;;;;-145.63;54.17;39301.94;5011681;28;20452;-66
2024/03/16 04:12:22;;;;;;;30.10;20.10;;;;;;;-145.63;54.03;39294.13;5013636;28;20044;-66
2024/03/16 04:15:28;;;;;;;31.30;19.55;;;;;;;-145.63;53.98;39315.66;5013678;28;20059;-66
2024/03/16 04:18:00;;;;;;;31.45;20.33;;;;;;;-145.63;53.80;39313.69;5032603;28;20435;-67
2024/03/16 04:20:41;;;;;;;46.25;20.42;;;;;;;-145.63;54.07;39319.56;5012446;28;20069;-67
2024/03/16 04:23:18;;;;;;;30.60;19.75;;;;;;;-145.63;54.05;39300.00;5012971;28;20060;-67
2024/03/16 04:25:47;;;;;;;31.20;18.73;;;;;;;-145.63;53.82;39303.91;5013098;28;20026;-66
2024/03/16 04:28:42;;;;;;;27.45;19.42;;;;;;;-145.63;53.43;39284.34;5012525;28;20092;-68
2024/03/16 04:31:54;;;;;;;27.20;19.38;;;;;;;-145.63;53.08;39292.19;5012977;28;20044;-66
2024/03/16 04:34:25;;;;;;;29.95;18.90;;;;;;;-145.63;53.21;39319.56;5012818;28;20060;-66
2024/03/16 04:36:51;;;;;;;28.27;19.10;;;;;;;-145.63;52.88;39313.69;5013359;28;20044;-67
2024/03/16 04:39:58;;;;;;;23.95;17.55;;;;;;;-145.63;53.06;39341.06;5028405;28;20107;-67
2024/03/16 04:42:46;;;;;;;28.65;19.30;;;;;;;-145.63;52.65;39292.19;5012464;28;20390;-65
2024/03/16 04:45:12;;;;;;;26.02;19.90;;;;;;;-145.63;52.70;39309.78;5012655;28;20112;-65
2024/03/16 04:47:40;;;;;;;29.92;19.17;;;;;;;-145.63;52.75;39317.59;5011587;28;20080;-66
2024/03/16 04:50:27;;;;;;;31.50;19.50;;;;;;;-145.63;52.84;39315.66;5013180;28;20062;-65
2024/03/16 04:53:05;;;;;;;28.23;19.95;;;;;;;-145.63;52.75;39305.88;5012867;28;20034;-67
2024/03/16 04:55:37;;;;;;;29.48;18.20;;;;;;;-145.63;52.63;39319.56;5013024;28;20132;-66
2024/03/16 05:01:45;;;;;;;29.55;18.90;;;;;;;-145.63;52.19;39305.88;5012966;28;20092;-67
2024/03/16 05:04:35;;;;;;;31.00;19.27;;;;;;;-145.63;52.02;39303.91;5013069;28;20099;-66
2024/03/16 05:10:34;;;;;;;29.67;19.20;;;;;;;-145.63;52.46;39319.56;5012539;28;20037;-66
2024/03/16 05:13:21;;;;;;;24.58;18.48;;;;;;;-145.63;52.07;39307.81;5013026;28;20034;-67
2024/03/16 05:15:50;;;;;;;27.35;18.55;;;;;;;-145.63;52.02;39282.41;5012810;28;20038;-65
2024/03/16 05:18:28;;;;;;;30.95;18.10;;;;;;;-145.63;52.33;39288.25;5011506;28;20037;-66
2024/03/16 05:21:08;;;;;;;31.83;19.38;;;;;;;-145.63;51.78;39270.66;5015055;28;20117;-66
2024/03/16 05:23:54;;;;;;;30.10;18.80;;;;;;;-145.63;51.51;39313.69;4996581;28;20054;-66
2024/03/16 05:26:44;;;;;;;26.95;17.48;;;;;;;-145.63;51.69;39253.06;5010077;28;20037;-67
2024/03/16 05:29:22;;;;;;;26.83;17.58;;;;;;;-145.63;51.50;39258.94;5014702;28;20473;-65
2024/03/16 05:31:58;;;;;;;31.13;17.90;;;;;;;-145.63;51.19;39323.47;5015970;28;20033;-67
2024/03/16 05:34:49;;;;;;;30.88;18.58;;;;;;;-145.63;50.71;39286.31;5015489;28;20042;-66
2024/03/16 05:37:27;;;;;;;29.00;17.30;;;;;;;-145.63;51.25;39270.66;5016419;28;20034;-66
2024/03/16 05:39:56;;;;;;;32.25;17.90;;;;;;;-145.63;51.02;39286.31;5015981;28;20033;-67
2024/03/16 05:42:21;;;;;;;29.73;17.20;;;;;;;-145.63;50.41;39278.47;5015982;28;20029;-66
2024/03/16 05:44:53;;;;;;;26.10;16.70;;;;;;;-145.63;50.25;39268.72;5016059;28;20038;-67
2024/03/16 05:50:25;;;;;;;29.95;18.60;;;;;;;-145.63;50.00;39266.75;5015454;28;20056;-68
2024/03/16 05:53:18;;;;;;;30.40;18.65;;;;;;;-145.63;50.29;39270.66;5016087;28;20471;-67
2024/03/16 05:55:46;;;;;;;30.13;19.25;;;;;;;-145.63;50.37;39294.13;5015719;28;20109;-66
2024/03/16 05:58:20;;;;;;;30.83;18.88;;;;;;;-145.63;50.16;39280.44;5016002;28;20109;-67
2024/03/16 06:00:49;;;;;;;30.23;18.38;;;;;;;-145.63;49.63;39266.75;5015753;28;20109;-66
2024/03/16 06:03:45;;;;;;;28.42;18.45;;;;;;;-145.63;49.46;39286.31;5015690;28;20032;-66
2024/03/16 06:06:16;;;;;;;33.45;18.88;;;;;;;-145.63;49.44;39274.56;5014849;28;20111;-66
2024/03/16 06:09:09;;;;;;;27.15;17.58;;;;;;;-145.63;50.26;39296.09;5012950;28;20419;-67
2024/03/16 06:11:46;;;;;;;31.08;19.00;;;;;;;-145.63;49.15;39260.88;5013424;28;20030;-66
2024/03/16 06:14:15;;;;;;;31.75;18.40;;;;;;;-145.63;49.06;39282.41;5013602;28;20026;-66
2024/03/16 06:17:09;;;;;;;32.40;17.98;;;;;;;-145.63;49.21;39286.31;5013471;28;20064;-66
2024/03/16 06:19:34;;;;;;;27.17;18.55;;;;;;;-145.63;49.38;39264.78;5012140;28;20037;-67
2024/03/16 06:22:01;;;;;;;27.02;18.92;;;;;;;-145.63;48.96;39286.31;5013621;28;20543;-66
2024/03/16 06:24:51;;;;;;;32.80;19.15;;;;;;;-145.63;48.42;39296.09;5012609;28;20459;-67
2024/03/16 06:27:23;;;;;;;36.78;18.25;;;;;;;-145.63;49.75;39255.00;5030107;28;20398;-66
2024/03/16 06:30:12;;;;;;;36.72;18.08;;;;;;;-145.63;49.40;39278.47;5014868;28;20513;-65
2024/03/16 06:33:10;;;;;;;30.63;19.50;;;;;;;-145.63;49.68;39286.31;4994410;28;20093;-66
2024/03/16 06:35:55;;;;;;;30.48;18.45;;;;;;;-145.63;49.22;39258.94;5013799;28;20137;-65
2024/03/16 06:38:39;;;;;;;34.45;19.15;;;;;;;-145.63;49.40;39319.56;5014586;28;20050;-64
2024/03/16 06:41:26;;;;;;;31.48;17.35;;;;;;;-145.63;48.25;39258.94;5014978;28;20033;-68
2024/03/16 06:46:51;;;;;;;32.65;19.00;;;;;;;-145.63;49.68;39266.75;5014812;28;20506;-65
2024/03/16 06:49:17;;;;;;;31.95;19.83;;;;;;;-145.63;49.27;39278.47;5014709;28;20400;-64
2024/03/16 06:51:52;;;;;;;29.38;19.17;;;;;;;-145.63;49.22;39262.84;5014368;28;20057;-67
2024/03/16 06:54:24;;;;;;;38.05;19.83;;;;;;;-145.63;49.19;39282.41;5014713;28;20479;-66
2024/03/16 06:57:08;;;;;;;34.92;19.13;;;;;;;-145.63;48.56;39294.13;5015146;28;20037;-66
2024/03/16 06:59:55;;;;;;;33.08;19.60;;;;;;;-145.63;49.26;39268.72;4995565;28;20064;-66
2024/03/16 07:02:30;;;;;;;35.20;20.00;;;;;;;-145.63;49.06;39313.69;5028824;28;20336;-66
2024/03/16 07:05:02;;;;;;;31.98;19.98;;;;;;;-145.63;49.46;39300.00;5049620;28;20025;-65
2024/03/16 07:10:48;;;;;;;29.70;18.63;;;;;;;-145.63;48.65;39290.22;5014379;28;20048;-66
2024/03/16 07:13:22;;;;;;;32.00;19.27;;;;;;;-145.63;48.47;39282.41;5014225;28;20036;-64
2024/03/16 07:15:57;;;;;;;29.90;19.50;;;;;;;-145.63;48.35;39294.13;5013916;28;20469;-65
2024/03/16 07:18:23;;;;;;;34.10;19.52;;;;;;;-145.63;47.91;39292.19;5012609;28;20030;-65
2024/03/16 07:21:07;;;;;;;34.10;20.40;;;;;;;-145.63;49.42;39282.41;5014222;28;20033;-65
2024/03/16 07:24:15;;;;;;;33.33;19.38;;;;;;;-145.63;49.39;39256.97;5010635;28;20127;-65
2024/03/16 07:29:34;;;;;;;31.23;19.45;;;;;;;-145.63;48.73;39266.75;5013367;28;20034;-64
2024/03/16 07:32:05;;;;;;;31.10;19.95;;;;;;;-145.63;48.59;39276.53;5013976;28;20026;-66
2024/03/16 07:34:34;;;;;;;32.83;21.17;;;;;;;-145.63;48.69;39294.13;5013016;28;20164;-65
2024/03/16 07:37:14;;;;;;;34.35;19.92;;;;;;;-145.63;48.22;39288.25;5013553;28;20045;-65
2024/03/16 07:39:46;;;;;;;37.63;20.63;;;;;;;-145.63;47.36;39266.75;5012629;28;20042;-65
2024/03/16 07:42:14;;;;;;;35.50;20.85;;;;;;;-145.63;48.52;39262.84;5013916;28;20044;-65
2024/03/16 07:47:52;;;;;;;30.17;20.13;;;;;;;-145.63;48.41;39296.09;5013379;28;20037;-64
2024/03/16 07:50:20;;;;;;;31.92;19.05;;;;;;;-145.63;47.73;39270.66;5013205;28;20026;-65
2024/03/16 07:52:46;;;;;;;31.45;21.08;;;;;;;-145.63;48.31;39270.66;5013331;28;20065;-65
2024/03/16 07:55:18;;;;;;;31.52;19.13;;;;;;;-145.63;47.38;39278.47;5013460;28;20359;-65
2024/03/16 07:57:47;;;;;;;33.70;19.67;;;;;;;-145.63;47.36;39298.03;5013163;28;20038;-65
2024/03/16 08:00:16;;;;;;;31.08;20.48;;;;;;;-145.63;46.70;39296.09;5013806;28;20048;-67
2024/03/16 08:02:42;;;;;;;29.73;19.67;;;;;;;-145.63;47.67;39255.00;5013813;28;20034;-66
2024/03/16 08:05:11;;;;;;;33.35;20.90;;;;;;;-145.63;47.66;39270.66;5013622;28;20053;-68
2024/03/16 08:10:57;;;;;;;39.38;21.63;;;;;;;-145.63;45.26;39270.66;5024989;28;19920;-68
2024/03/16 08:13:28;;;;;;;28.30;19.13;;;;;;;-145.63;45.66;39239.38;5023604;28;20037;-65
2024/03/16 08:16:02;;;;;;;31.35;19.75;;;;;;;-145.63;45.07;39258.94;5013371;28;20034;-67
2024/03/16 08:18:34;;;;;;;35.60;20.05;;;;;;;-145.63;44.40;39231.53;5011962;28;20037;-67
2024/03/16 08:21:05;;;;;;;35.10;20.27;;;;;;;-145.63;43.81;39255.00;5013267;28;20029;-66
2024/03/16 08:24:01;;;;;;;31.05;20.10;;;;;;;-145.63;44.16;39227.63;5011858;28;20060;-65
2024/03/16 08:27:04;;;;;;;38.10;20.80;;;;;;;-145.63;43.54;39245.25;5013328;28;20053;-65
2024/03/16 08:30:07;;;;;;;43.28;20.45;;;;;;;-145.63;42.29;39223.72;5012310;28;20109;-69
2024/03/16 08:33:28;;;;;;;32.63;19.80;;;;;;;-145.63;42.47;39249.16;5012576;28;20043;-65
2024/03/16 08:36:05;;;;;;;32.97;20.30;;;;;;;-145.63;41.46;39247.19;5009634;28;20500;-65
2024/03/16 08:38:42;;;;;;;32.55;19.67;;;;;;;-145.63;41.50;39221.78;5010389;28;20025;-65
2024/03/16 08:41:26;;;;;;;35.22;20.67;;;;;;;-145.63;39.74;39260.88;5013551;28;20390;-65
2024/03/16 08:51:06;;;;;;;29.92;20.17;;;;;;;-145.63;40.06;39247.19;5027378;28;20414;-66
2024/03/16 08:57:29;;;;;;;33.97;20.75;;;;;;;-145.63;38.94;39217.84;5011447;28;20026;-65
2024/03/16 09:03:12;;;;;;;30.83;19.42;;;;;;;-145.63;39.43;39215.91;5014445;28;20033;-66
2024/03/16 09:06:17;;;;;;;29.52;18.13;;;;;;;-145.63;40.03;39237.41;5012669;28;20394;-67
2024/03/16 09:09:11;;;;;;;31.95;19.58;;;;;;;-145.63;39.48;39213.94;5010864;28;20044;-67
2024/03/16 09:12:04;;;;;;;33.42;19.80;;;;;;;-145.63;39.21;39270.66;5010574;28;20056;-67
2024/03/16 09:14:55;;;;;;;29.95;19.67;;;;;;;-145.63;39.43;39235.47;5015060;28;20041;-68
2024/03/16 09:17:26;;;;;;;35.25;21.58;;;;;;;-145.63;38.25;39268.72;5011407;28;20759;-71
2024/03/16 09:20:16;;;;;;;27.25;19.50;;;;;;;-145.63;38.66;39241.31;5012904;28;20032;-67
2024/03/16 09:23:01;;;;;;;31.13;19.35;;;;;;;-145.63;37.48;39196.34;5013978;28;20052;-68
2024/03/16 09:25:36;;;;;;;28.10;17.58;;;;;;;-145.63;36.69;39219.81;5012335;28;20121;-68
2024/03/16 09:28:07;;;;;;;29.73;18.75;;;;;;;-145.63;38.03;39210.03;5012023;28;20034;-66
2024/03/16 09:30:44;;;;;;;27.83;17.63;;;;;;;-145.63;38.64;39223.72;5009580;28;20081;-66
2024/03/16 09:33:41;;;;;;;33.50;17.98;;;;;;;-145.63;37.58;39225.69;5012572;28;20441;-65
2024/03/16 09:36:28;;;;;;;29.77;16.55;;;;;;;-145.63;37.91;39212.00;5012415;28;20077;-65
2024/03/16 09:39:31;;;;;;;26.42;17.63;;;;;;;-145.63;37.67;39221.78;4992773;28;20180;-65
2024/03/16 09:42:06;;;;;;;26.77;17.50;;;;;;;-145.63;37.94;39260.88;4992783;28;20022;-65
2024/03/16 09:44:40;;;;;;;23.92;16.55;;;;;;;-145.63;37.93;39239.38;5010692;28;20037;-64
2024/03/16 09:47:23;;;;;;;28.48;14.18;;;;;;;-145.63;38.72;39243.28;5026053;28;20037;-67
2024/03/16 09:50:10;;;;;;;27.33;15.40;;;;;;;-145.63;38.44;39258.94;5021140;28;20042;-65
2024/03/16 09:52:41;;;;;;;22.30;15.48;;;;;;;-145.63;38.33;39243.28;5012040;28;20038;-64
2024/03/16 09:55:09;;;;;;;26.85;15.98;;;;;;;-145.63;38.20;39262.84;5012219;28;20038;-65
2024/03/16 09:57:53;;;;;;;28.00;15.77;;;;;;;-145.63;37.25;39260.88;5012382;28;20556;-64
2024/03/16 10:00:31;;;;;;;27.42;16.80;;;;;;;-145.63;38.88;39280.44;5012067;28;20030;-66
2024/03/16 10:03:00;;;;;;;27.88;16.98;;;;;;;-145.63;nan;39280.44;5012391;28;20032;-65
2024/03/16 10:05:27;;;;;;;27.80;16.33;;;;;;;-145.63;39.77;39262.84;5011972;28;20030;-65
2024/03/16 10:07:53;;;;;;;28.55;15.80;;;;;;;-145.63;38.94;39256.97;5014245;28;20030;-65
2024/03/16 10:10:34;;;;;;;19.67;14.63;;;;;;;-145.63;38.62;39241.31;5015759;28;20034;-65
2024/03/16 10:13:11;;;;;;;28.05;14.88;;;;;;;-145.63;38.87;39276.53;5015707;28;20029;-64
2024/03/16 10:16:09;;;;;;;23.90;13.90;;;;;;;-145.63;39.98;39251.09;5015241;28;20034;-65
2024/03/16 10:18:56;;;;;;;20.67;13.25;;;;;;;-145.63;38.40;39241.31;5015328;28;20034;-65
2024/03/16 10:21:21;;;;;;;21.33;13.77;;;;;;;-145.63;38.32;39268.72;5013993;28;20471;-65
2024/03/16 10:23:53;;;;;;;26.23;14.20;;;;;;;-145.63;39.50;39270.66;5014829;28;20032;-65
2024/03/16 10:26:31;;;;;;;18.70;13.38;;;;;;;-145.63;39.24;39258.94;5020350;28;20030;-66
2024/03/16 10:29:15;;;;;;;23.70;13.00;;;;;;;-145.63;38.44;39272.63;5034864;28;20033;-65
2024/03/16 10:38:04;;;;;;;20.38;12.00;;;;;;;-145.63;38.58;39274.56;5026463;28;20099;-67
2024/03/16 10:40:30;;;;;;;21.92;12.90;;;;;;;-145.63;38.18;39274.56;5032942;28;20037;-70
2024/03/16 10:43:04;;;;;;;19.67;13.10;;;;;;;-145.63;38.31;39253.06;5034288;28;20029;-67
2024/03/16 10:45:33;;;;;;;21.20;13.07;;;;;;;-145.63;38.07;39266.75;5034907;28;20030;-68
2024/03/16 10:48:15;;;;;;;21.02;12.35;;;;;;;-145.63;38.30;39274.56;4994414;28;20475;-67
2024/03/16 10:54:24;;;;;;;19.63;12.50;;;;;;;-145.63;37.22;39282.41;5023778;28;20121;-68
2024/03/16 10:56:50;;;;;;;22.42;12.68;;;;;;;-145.63;38.50;39272.63;5028808;28;20032;-67
2024/03/16 10:59:32;;;;;;;20.33;12.73;;;;;;;-145.63;38.18;39296.09;5032595;28;20455;-66
2024/03/16 11:01:58;;;;;;;24.17;12.35;;;;;;;-145.63;36.53;39274.56;5026100;28;20036;-67
2024/03/16 11:12:28;;;;;;;18.20;11.38;;;;;;;-145.63;38.22;39262.84;5021553;28;20049;-67
2024/03/16 11:15:37;;;;;;;19.30;10.98;;;;;;;-145.63;38.17;39278.47;5017145;28;20406;-67
2024/03/16 11:18:18;;;;;;;20.35;12.70;;;;;;;-145.63;37.54;39280.44;5010508;28;20026;-68
2024/03/16 11:20:50;;;;;;;23.75;11.82;;;;;;;-145.63;37.01;39104.44;5016386;28;20026;-68
2024/03/16 11:27:26;;;;;;;20.77;12.63;;;;;;;-145.63;37.59;39309.78;5022496;28;20026;-66
2024/03/16 11:33:43;;;;;;;28.65;12.95;;;;;;;-145.63;37.39;39278.47;5021169;28;20084;-68
2024/03/16 11:36:33;;;;;;;21.75;12.95;;;;;;;-145.63;37.91;39278.47;5010019;28;20418;-66
2024/03/16 11:43:05;;;;;;;23.30;13.07;;;;;;;-145.63;37.21;39260.88;5001955;28;20033;-68
2024/03/16 11:45:59;;;;;;;18.63;13.10;;;;;;;-145.63;36.85;39282.41;5016995;28;20402;-66
2024/03/16 11:48:55;;;;;;;26.85;14.00;;;;;;;-145.63;35.51;39260.88;5016243;28;20034;-65
2024/03/16 11:51:28;;;;;;;21.38;13.48;;;;;;;-145.63;36.17;39266.75;5012488;28;20060;-65
2024/03/16 11:53:57;;;;;;;24.45;13.88;;;;;;;-145.63;36.03;39278.47;5016321;28;20496;-64
2024/03/16 11:56:53;;;;;;;19.85;12.98;;;;;;;-145.63;37.41;39260.88;5018711;28;20036;-65
2024/03/16 11:59:34;;;;;;;23.02;12.77;;;;;;;-145.63;35.75;39258.94;5013291;28;20095;-66
2024/03/16 12:02:37;;;;;;;22.17;12.93;;;;;;;-145.63;35.37;39251.09;5011831;28;20065;-65
2024/03/16 12:05:37;;;;;;;24.90;12.93;;;;;;;-145.63;35.96;39266.75;5018645;28;20053;-66
2024/03/16 12:08:09;;;;;;;22.20;12.68;;;;;;;-145.63;36.72;39280.44;5019627;28;20030;-66
2024/03/16 12:10:38;;;;;;;20.55;12.10;;;;;;;-145.63;36.02;39258.94;5012535;28;20045;-65
2024/03/16 12:14:09;;;;;;;16.88;10.48;;;;;;;-145.63;35.85;39296.09;5019296;28;20128;-65
2024/03/16 12:17:04;;;;;;;22.65;11.43;;;;;;;-145.63;36.17;39270.66;5021659;28;20116;-66
2024/03/16 12:19:51;;;;;;;17.73;11.25;;;;;;;-145.63;35.57;39301.94;5020445;28;20071;-66
2024/03/16 12:25:58;;;;;;;21.52;10.35;;;;;;;-145.63;36.28;39307.81;5023260;28;20127;-65
2024/03/16 12:28:24;;;;;;;15.40;9.88;;;;;;;-145.63;35.28;39292.19;5022082;28;20049;-66
2024/03/16 12:34:37;;;;;;;19.30;9.57;;;;;;;-145.63;35.34;39278.47;5015817;28;20049;-65
2024/03/16 12:39:50;;;;;;;19.98;9.75;;;;;;;-145.63;36.95;39372.34;5031222;28;20379;-64
2024/03/16 12:42:40;;;;;;;23.27;9.88;;;;;;;-145.63;36.13;39286.31;5026257;28;20033;-66
2024/03/16 12:49:23;;;;;;;19.30;9.52;;;;;;;-145.63;36.53;39282.41;4996787;28;20076;-66
2024/03/16 12:51:57;;;;;;;24.92;9.60;;;;;;;-145.63;35.59;39276.53;5026835;28;20447;-65
2024/03/16 12:55:07;;;;;;;23.77;9.50;;;;;;;-145.63;36.19;39264.78;5030787;28;20113;-66
2024/03/16 12:57:54;;;;;;;17.07;9.23;;;;;;;-145.63;36.08;39292.19;5020856;28;20040;-66
2024/03/16 13:00:19;;;;;;;22.20;9.88;;;;;;;-145.63;35.30;39266.75;5045837;28;20083;-66
2024/03/16 13:06:17;;;;;;;18.08;9.40;;;;;;;-145.63;36.46;39276.53;5018687;28;20067;-66
2024/03/16 13:09:10;;;;;;;24.20;10.10;;;;;;;-145.63;35.80;39294.13;5025263;28;20084;-65
2024/03/16 13:14:32;;;;;;;26.58;10.05;;;;;;;-145.63;35.89;39268.72;5023033;28;20036;-65
2024/03/16 13:16:58;;;;;;;19.73;10.63;;;;;;;-145.63;35.44;39292.19;5028663;28;20028;-65
2024/03/16 13:23:18;;;;;;;23.35;9.45;;;;;;;-145.63;35.25;39268.72;5020521;28;20071;-66
2024/03/16 13:26:40;;;;;;;31.27;11.13;;;;;;;-145.63;35.12;39278.47;5003635;28;20045;-66
2024/03/16 13:29:30;;;;;;;33.58;10.23;;;;;;;-145.63;35.71;39286.31;5020231;28;20509;-65
2024/03/16 13:32:03;;;;;;;25.40;10.68;;;;;;;-145.63;35.29;39288.25;5041893;28;20029;-65
2024/03/16 13:34:30;;;;;;;24.30;9.80;;;;;;;-145.63;35.38;39290.22;5031096;28;20081;-66
2024/03/16 13:36:56;;;;;;;27.45;10.43;;;;;;;-145.63;35.69;39276.53;5030453;28;20190;-65
2024/03/16 13:39:25;;;;;;;37.63;10.80;;;;;;;-145.63;36.45;38748.50;5012493;28;20129;-65
2024/03/16 13:41:51;;;;;;;28.40;11.10;;;;;;;-145.63;34.79;39290.22;5014362;28;20045;-66
2024/03/16 13:44:18;;;;;;;29.45;10.57;;;;;;;-145.63;35.48;39290.22;5015742;28;20025;-66
2024/03/16 13:46:44;;;;;;;28.98;10.50;;;;;;;-145.63;35.14;39298.03;5029251;28;20029;-64